Albion, Pennsylvania
Current Conditions -  °F | °C
As of 3:51 AM on Thursday 23 Oct 2014 (Local Time) from KERI Reporting Station
Overcast Overcast  
Wind Chill: 11°   Ceiling: 2000
Heat Index: 11°   Visibility: 10mi
Dew Point:   Wind: 7mph
Humidity: 71%   Direction: 360°N
Pressure: 30.16"   Gusts: NA
Location:  41.89°N, 80.36°W
Report Text: KERI 230751Z 36006KT 10SM OVC020 11/06 A3016 RMK AO2 SLP218 T01060056
Loading
Personal Weather Stations






























Interactive Weather Map
Tropical Storm Tracking
New forecast layout! Learn more

10-Day Weather Forecast

Advertisements
Track Severe Weather on mobile